createdAt,value
2017-09-27T00:00:02.744Z,97.50
2017-09-27T00:02:32.489Z,97.50
2017-09-27T00:05:02.211Z,97.10
2017-09-27T00:07:31.185Z,97.10
2017-09-27T00:10:00.148Z,97.40
2017-09-27T00:12:29.884Z,97.80
2017-09-27T00:14:58.848Z,97.80
2017-09-27T00:17:27.824Z,97.60
2017-09-27T00:19:56.812Z,97.90
2017-09-27T00:22:25.794Z,98.00
2017-09-27T00:24:54.754Z,97.70
2017-09-27T00:27:24.590Z,97.80
2017-09-27T00:29:53.574Z,97.80
2017-09-27T00:32:22.531Z,97.80
2017-09-27T00:34:51.569Z,97.90
2017-09-27T00:37:20.568Z,97.90
2017-09-27T00:39:49.527Z,98.10
2017-09-27T00:42:18.546Z,98.10
2017-09-27T00:44:47.584Z,98.10
2017-09-27T00:47:17.317Z,98.40
2017-09-27T00:49:47.036Z,98.50
2017-09-27T00:52:16.029Z,98.10
2017-09-27T00:54:45.004Z,97.90
2017-09-27T00:57:14.392Z,97.90
2017-09-27T00:59:43.347Z,98.10
2017-09-27T01:02:12.351Z,98.10
2017-09-27T01:04:41.332Z,98.40
2017-09-27T01:07:11.140Z,98.60
2017-09-27T01:09:40.148Z,98.50
2017-09-27T01:12:09.104Z,98.70
2017-09-27T01:14:38.520Z,98.50
2017-09-27T01:17:07.473Z,98.60
2017-09-27T01:19:36.420Z,98.40
2017-09-27T01:22:05.413Z,98.60
2017-09-27T01:24:34.762Z,98.40
2017-09-27T01:27:03.749Z,98.80
2017-09-27T01:29:32.744Z,98.50
2017-09-27T01:32:02.225Z,98.30
2017-09-27T01:34:31.939Z,98.60
2017-09-27T01:37:01.309Z,98.10
2017-09-27T01:39:30.264Z,98.40
2017-09-27T01:41:59.228Z,98.10
2017-09-27T01:44:28.232Z,98.10
2017-09-27T01:46:57.236Z,97.90
2017-09-27T01:49:26.221Z,98.00
2017-09-27T01:51:55.193Z,98.00
2017-09-27T01:54:24.919Z,98.20
2017-09-27T01:56:53.937Z,98.20
2017-09-27T01:59:22.926Z,98.50
2017-09-27T02:01:51.887Z,98.10
2017-09-27T02:04:20.851Z,98.40
2017-09-27T02:06:49.833Z,98.30
2017-09-27T02:09:18.785Z,98.30
2017-09-27T02:11:47.773Z,98.40
2017-09-27T02:14:16.724Z,98.30
2017-09-27T02:16:46.542Z,98.60
2017-09-27T02:19:16.252Z,98.70
2017-09-27T02:21:46.148Z,98.60
2017-09-27T02:24:15.156Z,98.30
2017-09-27T02:26:44.908Z,98.70
2017-09-27T02:29:13.862Z,98.20
2017-09-27T02:31:43.616Z,98.50
2017-09-27T02:34:13.377Z,98.10
2017-09-27T02:36:43.125Z,98.40
2017-09-27T02:39:12.076Z,98.10
2017-09-27T02:41:41.841Z,98.30
2017-09-27T02:44:10.808Z,98.00
2017-09-27T02:46:39.765Z,98.00
2017-09-27T02:49:09.548Z,98.40
2017-09-27T02:51:38.501Z,98.40
2017-09-27T02:54:07.480Z,98.60
2017-09-27T02:56:36.440Z,98.50
2017-09-27T02:59:05.459Z,98.80
2017-09-27T03:01:34.425Z,98.60
2017-09-27T03:04:03.429Z,98.60
2017-09-27T03:06:32.377Z,98.90
2017-09-27T03:09:01.376Z,99.10
2017-09-27T03:11:30.337Z,98.80
2017-09-27T03:13:59.327Z,98.50
2017-09-27T03:16:28.271Z,98.90
2017-09-27T03:18:57.224Z,98.70
2017-09-27T03:21:26.264Z,98.30
2017-09-27T03:23:55.230Z,98.40
2017-09-27T03:26:24.200Z,98.20
2017-09-27T03:28:53.196Z,98.10
2017-09-27T03:31:22.201Z,98.10
2017-09-27T03:33:51.206Z,98.40
2017-09-27T03:36:20.194Z,98.50
2017-09-27T03:38:49.136Z,98.30
2017-09-27T03:41:18.129Z,98.20
2017-09-27T03:43:47.180Z,98.10
2017-09-27T03:46:16.159Z,98.30
2017-09-27T03:48:45.108Z,98.20
2017-09-27T03:51:14.116Z,98.40
2017-09-27T03:53:43.073Z,98.20
2017-09-27T03:56:12.826Z,98.50
2017-09-27T03:58:41.779Z,98.30
2017-09-27T04:01:10.767Z,98.50
2017-09-27T04:03:40.491Z,98.40
2017-09-27T04:06:09.877Z,98.00
2017-09-27T04:08:39.613Z,98.10
2017-09-27T04:11:08.596Z,98.10
2017-09-27T04:13:37.584Z,98.10
2017-09-27T04:16:06.544Z,97.90
2017-09-27T04:18:35.585Z,98.00
2017-09-27T04:21:04.602Z,98.20
2017-09-27T04:23:33.576Z,98.40
2017-09-27T04:26:02.536Z,98.50
2017-09-27T04:28:32.272Z,98.50
2017-09-27T04:31:01.229Z,98.50
2017-09-27T04:33:31.000Z,98.50
2017-09-27T04:35:59.979Z,98.50
2017-09-27T04:38:28.961Z,98.40
2017-09-27T04:40:57.921Z,98.40
2017-09-27T04:43:27.673Z,98.50
2017-09-27T04:45:56.637Z,98.40
2017-09-27T04:48:25.626Z,98.40
2017-09-27T04:50:54.604Z,98.70
2017-09-27T04:53:23.647Z,98.50
2017-09-27T04:55:53.193Z,98.40
2017-09-27T04:58:22.942Z,98.80
2017-09-27T05:00:52.303Z,98.60
2017-09-27T05:03:21.306Z,98.60
2017-09-27T05:05:51.439Z,98.80
2017-09-27T05:08:20.468Z,98.40
2017-09-27T05:10:49.425Z,98.70
2017-09-27T05:13:19.484Z,98.40
2017-09-27T05:15:49.692Z,98.50
2017-09-27T05:18:18.707Z,98.50
2017-09-27T05:20:47.663Z,98.50
2017-09-27T05:23:17.689Z,98.70
2017-09-27T05:25:46.640Z,98.30
2017-09-27T05:28:16.384Z,98.60
2017-09-27T05:30:45.908Z,98.50
2017-09-27T05:33:14.908Z,98.00
2017-09-27T05:35:43.954Z,98.30
2017-09-27T05:38:12.921Z,98.10
2017-09-27T05:40:41.899Z,98.20
2017-09-27T05:43:10.897Z,98.30
2017-09-27T05:45:39.854Z,98.60
2017-09-27T05:48:08.895Z,98.30
2017-09-27T05:50:38.608Z,98.60
2017-09-27T05:53:08.381Z,98.30
2017-09-27T05:55:37.715Z,98.20
2017-09-27T05:58:06.693Z,98.30
2017-09-27T06:00:35.667Z,98.20
2017-09-27T06:03:04.650Z,98.20
2017-09-27T06:05:33.610Z,98.50
2017-09-27T06:08:02.681Z,98.60
2017-09-27T06:10:32.164Z,98.50
2017-09-27T06:13:01.734Z,98.30
2017-09-27T06:15:30.688Z,98.40
2017-09-27T06:18:00.423Z,98.50
2017-09-27T06:20:29.453Z,98.30
2017-09-27T06:22:58.432Z,98.50
2017-09-27T06:25:27.408Z,98.60
2017-09-27T06:27:56.373Z,98.70
2017-09-27T06:30:26.053Z,98.60
2017-09-27T06:32:55.815Z,99.00
2017-09-27T06:35:24.776Z,98.30
2017-09-27T06:37:53.864Z,98.60
2017-09-27T06:40:23.199Z,98.00
2017-09-27T06:42:52.238Z,97.90
2017-09-27T06:45:21.199Z,98.00
2017-09-27T06:47:50.165Z,98.30
2017-09-27T06:50:19.860Z,98.40
2017-09-27T06:52:49.586Z,98.00
2017-09-27T06:55:18.584Z,98.30
2017-09-27T06:57:47.653Z,98.10
2017-09-27T07:00:16.685Z,97.80
2017-09-27T07:02:45.640Z,98.00
2017-09-27T07:05:16.411Z,97.40
2017-09-27T07:07:46.239Z,97.70
2017-09-27T07:10:16.006Z,98.00
2017-09-27T07:12:45.001Z,97.50
2017-09-27T07:15:14.608Z,97.80
2017-09-27T07:17:43.586Z,97.50
2017-09-27T07:20:13.310Z,97.80
2017-09-27T07:22:42.685Z,97.40
2017-09-27T07:25:12.431Z,97.50
2017-09-27T07:27:41.414Z,97.30
2017-09-27T07:30:10.372Z,97.60
2017-09-27T07:32:40.127Z,97.70
2017-09-27T07:35:09.083Z,97.60
2017-09-27T07:37:39.705Z,97.70
2017-09-27T07:40:09.454Z,97.80
2017-09-27T07:42:39.097Z,97.40
2017-09-27T07:45:08.092Z,97.70
2017-09-27T07:47:37.085Z,97.50
2017-09-27T07:50:06.049Z,97.50
2017-09-27T07:52:35.902Z,96.50
2017-09-27T07:55:05.642Z,96.90
2017-09-27T07:57:34.624Z,96.30
2017-09-27T08:00:04.346Z,96.80
2017-09-27T08:02:33.327Z,96.50
2017-09-27T08:05:03.030Z,96.80
2017-09-27T08:07:32.766Z,96.80
2017-09-27T08:10:01.821Z,96.10
2017-09-27T08:12:30.792Z,96.30
2017-09-27T08:14:59.876Z,96.70
2017-09-27T08:17:28.829Z,96.70
2017-09-27T08:19:57.805Z,96.90
2017-09-27T08:22:27.574Z,96.50
2017-09-27T08:24:56.532Z,96.50
2017-09-27T08:27:25.508Z,96.20
2017-09-27T08:29:55.658Z,96.20
2017-09-27T08:32:25.778Z,96.00
2017-09-27T08:34:54.782Z,96.00
2017-09-27T08:37:23.920Z,95.80
2017-09-27T08:39:52.857Z,95.80
2017-09-27T08:42:21.856Z,94.90
2017-09-27T08:44:50.824Z,94.70
2017-09-27T08:47:19.816Z,94.70
2017-09-27T08:49:48.780Z,94.90
2017-09-27T08:52:19.105Z,94.60
2017-09-27T08:54:48.876Z,95.10
2017-09-27T08:57:17.858Z,94.00
2017-09-27T08:59:47.612Z,93.80
2017-09-27T09:02:17.364Z,93.80
2017-09-27T09:04:46.419Z,93.70
2017-09-27T09:07:15.791Z,93.60
2017-09-27T09:09:44.812Z,93.20
2017-09-27T09:12:14.632Z,93.60
2017-09-27T09:14:43.608Z,92.80
2017-09-27T09:17:13.324Z,93.30
2017-09-27T09:19:43.068Z,93.30
2017-09-27T09:22:15.157Z,92.80
2017-09-27T09:24:44.361Z,92.80
2017-09-27T09:27:13.303Z,93.20
2017-09-27T09:29:42.299Z,92.40
2017-09-27T09:32:11.257Z,92.50
2017-09-27T09:34:40.235Z,92.80
2017-09-27T09:37:09.397Z,91.60
2017-09-27T09:39:38.366Z,92.00
2017-09-27T09:42:07.334Z,92.70
2017-09-27T09:44:37.190Z,92.70
2017-09-27T09:47:06.168Z,92.50
2017-09-27T09:49:35.166Z,92.90
2017-09-27T09:52:04.144Z,92.30
2017-09-27T09:54:33.114Z,93.00
2017-09-27T09:57:02.944Z,92.30
2017-09-27T09:59:31.922Z,91.90
2017-09-27T10:02:01.651Z,92.40
2017-09-27T10:04:31.806Z,92.40
2017-09-27T10:07:01.532Z,92.00
2017-09-27T10:09:30.515Z,92.10
2017-09-27T10:11:59.532Z,92.10
2017-09-27T10:14:28.515Z,92.00
2017-09-27T10:16:57.472Z,92.30
2017-09-27T10:19:26.445Z,91.10
2017-09-27T10:21:55.397Z,91.50
2017-09-27T10:24:24.353Z,91.70
2017-09-27T10:26:53.457Z,90.80
2017-09-27T10:29:22.436Z,90.70
2017-09-27T10:31:51.889Z,90.50
2017-09-27T10:34:21.736Z,90.80
2017-09-27T10:36:50.691Z,90.70
2017-09-27T10:39:20.455Z,91.50
2017-09-27T10:41:49.503Z,91.40
2017-09-27T10:44:18.492Z,91.30
2017-09-27T10:46:48.235Z,91.60
2017-09-27T10:49:17.220Z,90.90
2017-09-27T10:51:46.171Z,90.80
2017-09-27T10:54:15.558Z,90.00
2017-09-27T10:56:44.506Z,88.50
2017-09-27T10:59:13.519Z,89.00
2017-09-27T11:01:45.786Z,87.30
2017-09-27T11:04:14.767Z,89.00
2017-09-27T11:06:43.730Z,88.50
2017-09-27T11:09:13.533Z,88.80
2017-09-27T11:11:43.294Z,88.80
2017-09-27T11:14:12.251Z,88.80
2017-09-27T11:16:41.988Z,88.70
2017-09-27T11:19:11.701Z,88.80
2017-09-27T11:21:40.697Z,90.20
2017-09-27T11:24:09.661Z,90.60
2017-09-27T11:26:39.378Z,89.90
2017-09-27T11:29:08.775Z,88.70
2017-09-27T11:31:37.733Z,88.80
2017-09-27T11:34:07.841Z,90.20
2017-09-27T11:36:36.833Z,90.60
2017-09-27T11:39:06.105Z,90.90
2017-09-27T11:41:35.088Z,90.40
2017-09-27T11:44:04.100Z,90.70
2017-09-27T11:46:33.953Z,90.20
2017-09-27T11:49:03.665Z,91.00
2017-09-27T11:51:33.415Z,90.40
2017-09-27T11:54:02.471Z,90.10
2017-09-27T11:56:32.298Z,90.80
2017-09-27T11:59:01.662Z,89.90
2017-09-27T12:01:30.662Z,90.00
2017-09-27T12:03:59.667Z,89.80
2017-09-27T12:06:30.309Z,90.70
2017-09-27T12:08:59.280Z,89.70
2017-09-27T12:11:29.037Z,90.70
2017-09-27T12:13:58.003Z,90.30
2017-09-27T12:16:27.026Z,90.80
2017-09-27T12:18:56.857Z,90.70
2017-09-27T12:21:25.870Z,90.70
2017-09-27T12:23:54.851Z,90.40
2017-09-27T12:26:24.024Z,90.70
2017-09-27T12:28:52.987Z,90.90
2017-09-27T12:31:22.733Z,90.60
2017-09-27T12:33:51.741Z,90.90
2017-09-27T12:36:21.469Z,90.40
2017-09-27T12:38:50.443Z,90.30
2017-09-27T12:41:19.431Z,90.50
2017-09-27T12:43:48.789Z,90.60
2017-09-27T12:46:17.756Z,90.70
2017-09-27T12:48:47.528Z,90.90
2017-09-27T12:51:16.543Z,90.40
2017-09-27T12:53:45.543Z,90.40
2017-09-27T12:56:14.915Z,91.10
2017-09-27T12:58:43.865Z,91.00
2017-09-27T13:01:12.840Z,91.40
2017-09-27T13:03:42.625Z,90.90
2017-09-27T13:06:11.615Z,90.70
2017-09-27T13:08:40.651Z,91.00
2017-09-27T13:11:09.708Z,91.10
2017-09-27T13:13:38.672Z,90.90
2017-09-27T13:16:07.620Z,90.20
2017-09-27T13:18:36.704Z,90.10
2017-09-27T13:21:05.702Z,90.20
2017-09-27T13:23:35.439Z,90.40
2017-09-27T13:26:04.400Z,90.00
2017-09-27T13:28:34.122Z,90.60
2017-09-27T13:31:03.166Z,89.20
2017-09-27T13:33:32.160Z,90.00
2017-09-27T13:36:01.133Z,90.70
2017-09-27T13:38:30.868Z,90.30
2017-09-27T13:40:59.910Z,90.60
2017-09-27T13:43:28.936Z,90.60
2017-09-27T13:45:57.936Z,90.00
2017-09-27T13:48:26.912Z,90.00
2017-09-27T13:50:55.879Z,89.10
2017-09-27T13:53:24.843Z,90.00
2017-09-27T13:55:54.892Z,90.00
2017-09-27T13:58:24.246Z,90.20
2017-09-27T14:00:53.204Z,90.50
2017-09-27T14:03:22.205Z,90.40
2017-09-27T14:05:51.239Z,90.00
2017-09-27T14:08:20.988Z,90.50
2017-09-27T14:10:49.984Z,90.10
2017-09-27T14:13:18.955Z,89.60
2017-09-27T14:15:47.917Z,90.10
2017-09-27T14:18:17.754Z,90.20
2017-09-27T14:20:46.729Z,90.20
2017-09-27T14:23:16.098Z,86.80
2017-09-27T14:25:45.099Z,87.50
2017-09-27T14:28:14.124Z,87.50
2017-09-27T14:30:43.125Z,88.00
2017-09-27T14:33:12.178Z,88.70
2017-09-27T14:35:41.137Z,90.30
2017-09-27T14:38:10.149Z,90.60
2017-09-27T14:40:39.133Z,91.10
2017-09-27T14:43:08.221Z,91.40
2017-09-27T14:45:37.206Z,91.70
2017-09-27T14:48:06.182Z,91.30
2017-09-27T14:50:35.205Z,91.30
2017-09-27T14:53:04.207Z,91.70
2017-09-27T14:55:33.196Z,91.90
2017-09-27T14:58:02.550Z,91.90
2017-09-27T15:00:31.521Z,92.00
2017-09-27T15:03:01.270Z,92.60
2017-09-27T15:05:30.250Z,92.00
2017-09-27T15:07:59.212Z,92.30
2017-09-27T15:10:29.012Z,92.80
2017-09-27T15:12:58.822Z,93.00
2017-09-27T15:15:27.819Z,92.80
2017-09-27T15:17:56.796Z,92.60
2017-09-27T15:20:26.141Z,92.60
2017-09-27T15:22:55.099Z,92.30
2017-09-27T15:25:24.573Z,92.60
2017-09-27T15:27:53.536Z,93.00
2017-09-27T15:30:23.377Z,92.90
2017-09-27T15:32:54.066Z,92.80
2017-09-27T15:35:23.074Z,93.10
2017-09-27T15:37:52.057Z,93.40
2017-09-27T15:40:21.005Z,93.20
2017-09-27T15:42:50.032Z,93.30
2017-09-27T15:45:19.826Z,93.80
2017-09-27T15:47:49.544Z,93.40
2017-09-27T15:50:19.353Z,93.60
2017-09-27T15:52:49.173Z,93.50
2017-09-27T15:55:20.090Z,93.00
2017-09-27T15:57:49.073Z,93.30
2017-09-27T16:00:18.045Z,93.50
2017-09-27T16:02:47.805Z,93.50
2017-09-27T16:05:16.781Z,93.10
2017-09-27T16:07:47.263Z,93.70
2017-09-27T16:10:17.020Z,93.50
2017-09-27T16:12:46.777Z,93.70
2017-09-27T16:15:16.506Z,93.80
2017-09-27T16:17:46.258Z,93.70
2017-09-27T16:20:15.999Z,93.60
2017-09-27T16:22:45.413Z,93.40
2017-09-27T16:25:15.144Z,93.70
2017-09-27T16:27:44.156Z,93.70
2017-09-27T16:30:13.124Z,93.20
2017-09-27T16:32:43.221Z,93.40
2017-09-27T16:35:13.701Z,93.50
2017-09-27T16:37:43.489Z,93.80
2017-09-27T16:40:13.549Z,93.70
2017-09-27T16:42:42.541Z,93.60
2017-09-27T16:45:11.953Z,93.60
2017-09-27T16:47:40.938Z,93.40
2017-09-27T16:50:11.536Z,93.40
2017-09-27T16:52:42.013Z,93.80
2017-09-27T16:55:11.539Z,93.60
2017-09-27T16:57:41.282Z,93.80
2017-09-27T17:00:11.250Z,93.90
2017-09-27T17:02:41.498Z,94.00
2017-09-27T17:05:10.996Z,94.10
2017-09-27T17:07:40.377Z,94.30
2017-09-27T17:10:09.353Z,94.30
2017-09-27T17:12:38.340Z,94.30
2017-09-27T17:15:07.308Z,94.40
2017-09-27T17:17:36.321Z,94.60
2017-09-27T17:20:05.708Z,94.50
2017-09-27T17:22:34.833Z,94.60
2017-09-27T17:25:04.544Z,94.50
2017-09-27T17:27:33.947Z,94.70
2017-09-27T17:30:02.920Z,94.70
2017-09-27T17:32:31.944Z,94.60
2017-09-27T17:35:00.933Z,94.60
2017-09-27T17:37:30.297Z,94.30
2017-09-27T17:39:59.280Z,94.20
2017-09-27T17:42:29.028Z,94.80
2017-09-27T17:44:58.066Z,94.50
2017-09-27T17:47:27.813Z,94.70
2017-09-27T17:49:56.784Z,94.70
2017-09-27T17:52:26.512Z,94.90
2017-09-27T17:54:55.953Z,95.00
2017-09-27T17:57:25.757Z,95.00
2017-09-27T17:59:54.740Z,95.20
2017-09-27T18:02:23.736Z,95.20
2017-09-27T18:07:55.670Z,95.40
2017-09-27T18:10:41.352Z,95.50
2017-09-27T18:13:30.051Z,95.60
2017-09-27T18:16:14.678Z,95.70
2017-09-27T18:18:44.900Z,95.60
2017-09-27T18:21:13.954Z,95.60
2017-09-27T18:23:43.690Z,95.60
2017-09-27T18:26:13.427Z,95.90
2017-09-27T18:28:43.552Z,95.90
2017-09-27T18:31:12.516Z,95.60
2017-09-27T18:33:42.270Z,96.00
2017-09-27T18:36:11.267Z,95.90
2017-09-27T18:38:40.970Z,95.90
2017-09-27T18:41:10.463Z,95.90
2017-09-27T18:43:41.108Z,96.00
2017-09-27T18:46:10.084Z,96.10
2017-09-27T18:48:39.088Z,96.00
2017-09-27T18:51:08.979Z,95.90
2017-09-27T18:53:37.958Z,95.90
2017-09-27T18:56:06.946Z,95.70
2017-09-27T18:58:36.690Z,96.20
2017-09-27T19:01:05.721Z,95.80
2017-09-27T19:03:34.726Z,96.00
2017-09-27T19:06:03.902Z,96.00
2017-09-27T19:08:32.908Z,96.10
2017-09-27T19:11:01.910Z,96.10
2017-09-27T19:13:31.273Z,96.20
2017-09-27T19:16:01.054Z,96.10
2017-09-27T19:18:30.026Z,96.20
2017-09-27T19:20:59.445Z,96.20
2017-09-27T19:23:28.450Z,96.00
2017-09-27T19:25:57.423Z,96.30
2017-09-27T19:28:26.521Z,96.20
2017-09-27T19:30:55.754Z,96.00
2017-09-27T19:33:24.741Z,96.20
2017-09-27T19:35:53.701Z,96.20
2017-09-27T19:38:23.471Z,96.10
2017-09-27T19:40:52.470Z,96.00
2017-09-27T19:43:21.455Z,96.00
2017-09-27T19:45:51.263Z,95.90
2017-09-27T19:48:20.289Z,95.90
2017-09-27T19:50:50.462Z,96.20
2017-09-27T19:53:19.495Z,96.10
2017-09-27T19:55:49.225Z,96.40
2017-09-27T19:58:18.199Z,96.20
2017-09-27T20:00:47.210Z,96.00
2017-09-27T20:03:16.183Z,96.00
2017-09-27T20:05:45.940Z,96.20
2017-09-27T20:08:14.974Z,96.10
2017-09-27T20:10:44.795Z,96.60
2017-09-27T20:13:14.545Z,96.60
2017-09-27T20:15:44.464Z,96.30
2017-09-27T20:18:13.435Z,96.30
2017-09-27T20:20:42.446Z,96.10
2017-09-27T20:23:11.412Z,96.10
2017-09-27T20:25:41.880Z,96.10
2017-09-27T20:28:11.777Z,96.50
2017-09-27T20:30:40.765Z,96.20
2017-09-27T20:33:10.142Z,96.20
2017-09-27T20:35:39.576Z,96.20
2017-09-27T20:38:08.621Z,96.30
2017-09-27T20:40:38.381Z,96.70
2017-09-27T20:43:07.350Z,96.40
2017-09-27T20:45:37.634Z,96.40
2017-09-27T20:48:07.437Z,96.60
2017-09-27T20:50:37.639Z,96.40
2017-09-27T20:53:07.396Z,96.80
2017-09-27T20:55:36.380Z,96.30
2017-09-27T20:58:05.537Z,96.70
2017-09-27T21:00:34.527Z,96.40
2017-09-27T21:03:03.496Z,96.30
2017-09-27T21:05:32.554Z,96.30
2017-09-27T21:08:01.933Z,96.20
2017-09-27T21:10:30.944Z,96.20
2017-09-27T21:13:00.705Z,96.20
2017-09-27T21:15:29.681Z,96.20
2017-09-27T21:17:58.645Z,96.10
2017-09-27T21:20:27.650Z,96.40
2017-09-27T21:22:56.606Z,96.30
2017-09-27T21:25:25.661Z,96.60
2017-09-27T21:27:55.040Z,96.40
2017-09-27T21:30:24.275Z,96.50
2017-09-27T21:32:53.561Z,96.50
2017-09-27T21:35:22.557Z,96.60
2017-09-27T21:37:51.506Z,96.60
2017-09-27T21:40:20.521Z,96.60
2017-09-27T21:42:49.489Z,96.60
2017-09-27T21:45:18.869Z,96.60
2017-09-27T21:47:48.608Z,96.80
2017-09-27T21:50:17.593Z,96.50
2017-09-27T21:52:46.568Z,96.50
2017-09-27T21:55:16.377Z,96.70
2017-09-27T21:57:46.104Z,96.80
2017-09-27T22:00:15.097Z,96.40
2017-09-27T22:02:44.817Z,96.80
2017-09-27T22:05:14.341Z,96.60
2017-09-27T22:07:43.696Z,96.50
2017-09-27T22:10:13.871Z,96.70
2017-09-27T22:12:42.847Z,96.10
2017-09-27T22:15:11.822Z,96.00
2017-09-27T22:17:40.801Z,96.30
2017-09-27T22:20:10.152Z,96.50
2017-09-27T22:22:39.900Z,96.60
2017-09-27T22:25:09.620Z,96.70
2017-09-27T22:27:38.711Z,96.30
2017-09-27T22:30:08.442Z,96.40
2017-09-27T22:32:37.414Z,96.00
2017-09-27T22:35:07.141Z,96.50
2017-09-27T22:37:36.123Z,96.40
2017-09-27T22:40:05.613Z,96.80
2017-09-27T22:42:35.355Z,97.00
2017-09-27T22:45:04.308Z,96.90
2017-09-27T22:47:34.156Z,97.10
2017-09-27T22:50:03.495Z,96.80
2017-09-27T22:52:32.483Z,96.80
2017-09-27T22:55:01.473Z,96.60
2017-09-27T22:57:30.455Z,96.40
2017-09-27T22:59:59.938Z,96.30
2017-09-27T23:02:28.958Z,96.30
2017-09-27T23:04:57.914Z,96.50
2017-09-27T23:07:28.044Z,96.80
2017-09-27T23:09:57.049Z,96.60
2017-09-27T23:12:26.403Z,96.50
2017-09-27T23:14:56.155Z,96.80
2017-09-27T23:17:25.100Z,96.50
2017-09-27T23:19:54.671Z,96.60
2017-09-27T23:22:35.554Z,96.70
2017-09-27T23:25:05.338Z,96.80
2017-09-27T23:27:34.701Z,96.70
2017-09-27T23:30:04.072Z,96.80
2017-09-27T23:32:33.028Z,96.70
2017-09-27T23:35:02.082Z,96.80
2017-09-27T23:37:31.820Z,97.00
2017-09-27T23:40:01.560Z,96.70
2017-09-27T23:42:32.024Z,97.30
2017-09-27T23:45:01.884Z,97.60
2017-09-27T23:47:30.831Z,97.40
2017-09-27T23:50:00.589Z,97.70
2017-09-27T23:52:29.583Z,97.70
2017-09-27T23:54:59.208Z,97.60
2017-09-27T23:57:28.221Z,97.80
2017-09-27T23:59:58.353Z,98.40
